sensor_id;sensor_type;location;lat;lon;timestamp;temperature;humidity
27823;DHT22;29019;47.630;8.262;2023-02-27T00:01:11;18.60;29.60
27823;DHT22;29019;47.630;8.262;2023-02-27T00:05:11;18.60;29.60
27823;DHT22;29019;47.630;8.262;2023-02-27T00:09:12;18.60;29.60
27823;DHT22;29019;47.630;8.262;2023-02-27T00:13:12;18.50;29.50
27823;DHT22;29019;47.630;8.262;2023-02-27T00:17:13;18.50;29.50
27823;DHT22;29019;47.630;8.262;2023-02-27T00:21:13;18.50;29.50
27823;DHT22;29019;47.630;8.262;2023-02-27T00:25:14;18.40;29.50
27823;DHT22;29019;47.630;8.262;2023-02-27T00:29:14;18.40;29.50
27823;DHT22;29019;47.630;8.262;2023-02-27T00:33:15;18.40;29.50
27823;DHT22;29019;47.630;8.262;2023-02-27T00:37:15;18.40;29.50
27823;DHT22;29019;47.630;8.262;2023-02-27T00:41:16;18.40;29.60
27823;DHT22;29019;47.630;8.262;2023-02-27T00:45:16;18.30;29.50
27823;DHT22;29019;47.630;8.262;2023-02-27T00:49:17;18.30;29.50
27823;DHT22;29019;47.630;8.262;2023-02-27T00:53:18;18.30;29.60
27823;DHT22;29019;47.630;8.262;2023-02-27T00:57:19;18.30;29.50
27823;DHT22;29019;47.630;8.262;2023-02-27T01:01:20;18.30;29.50
27823;DHT22;29019;47.630;8.262;2023-02-27T01:05:20;18.30;29.60
27823;DHT22;29019;47.630;8.262;2023-02-27T01:09:21;18.20;29.50
27823;DHT22;29019;47.630;8.262;2023-02-27T01:13:21;18.20;29.50
27823;DHT22;29019;47.630;8.262;2023-02-27T01:17:22;18.20;29.60
27823;DHT22;29019;47.630;8.262;2023-02-27T01:21:22;18.20;29.60
27823;DHT22;29019;47.630;8.262;2023-02-27T01:25:23;18.20;29.60
27823;DHT22;29019;47.630;8.262;2023-02-27T01:29:23;18.10;29.50
27823;DHT22;29019;47.630;8.262;2023-02-27T01:33:24;18.10;29.60
27823;DHT22;29019;47.630;8.262;2023-02-27T01:37:24;18.10;29.60
27823;DHT22;29019;47.630;8.262;2023-02-27T01:41:25;18.10;29.60
27823;DHT22;29019;47.630;8.262;2023-02-27T01:45:27;18.10;29.60
27823;DHT22;29019;47.630;8.262;2023-02-27T01:49:29;18.00;29.60
27823;DHT22;29019;47.630;8.262;2023-02-27T01:53:32;18.00;29.60
27823;DHT22;29019;47.630;8.262;2023-02-27T01:57:33;18.00;29.60
27823;DHT22;29019;47.630;8.262;2023-02-27T02:01:34;18.00;29.60
27823;DHT22;29019;47.630;8.262;2023-02-27T02:05:35;18.00;29.60
27823;DHT22;29019;47.630;8.262;2023-02-27T02:09:37;18.00;29.60
27823;DHT22;29019;47.630;8.262;2023-02-27T02:13:39;18.00;29.60
27823;DHT22;29019;47.630;8.262;2023-02-27T02:30:22;17.90;29.60
27823;DHT22;29019;47.630;8.262;2023-02-27T02:42:51;17.90;29.60
27823;DHT22;29019;47.630;8.262;2023-02-27T03:03:21;17.70;29.60
27823;DHT22;29019;47.630;8.262;2023-02-27T03:11:35;17.70;29.50
27823;DHT22;29019;47.630;8.262;2023-02-27T03:15:42;17.70;29.50
27823;DHT22;29019;47.630;8.262;2023-02-27T03:20:03;17.70;29.70
27823;DHT22;29019;47.630;8.262;2023-02-27T03:24:06;17.70;29.50
27823;DHT22;29019;47.630;8.262;2023-02-27T03:28:10;17.70;29.50
27823;DHT22;29019;47.630;8.262;2023-02-27T03:32:28;17.70;29.50
27823;DHT22;29019;47.630;8.262;2023-02-27T03:40:43;17.60;29.50
27823;DHT22;29019;47.630;8.262;2023-02-27T03:44:51;17.60;29.50
27823;DHT22;29019;47.630;8.262;2023-02-27T03:48:54;17.60;29.50
27823;DHT22;29019;47.630;8.262;2023-02-27T03:52:55;17.60;29.60
27823;DHT22;29019;47.630;8.262;2023-02-27T03:56:57;17.60;29.60
27823;DHT22;29019;47.630;8.262;2023-02-27T04:00:59;17.50;29.50
27823;DHT22;29019;47.630;8.262;2023-02-27T04:05:00;17.60;29.60
27823;DHT22;29019;47.630;8.262;2023-02-27T04:09:02;17.60;29.50
27823;DHT22;29019;47.630;8.262;2023-02-27T04:13:17;17.50;29.50
27823;DHT22;29019;47.630;8.262;2023-02-27T04:17:23;17.50;29.60
27823;DHT22;29019;47.630;8.262;2023-02-27T04:21:26;17.50;29.60
27823;DHT22;29019;47.630;8.262;2023-02-27T04:25:42;17.50;29.90
27823;DHT22;29019;47.630;8.262;2023-02-27T04:34:08;17.50;29.50
27823;DHT22;29019;47.630;8.262;2023-02-27T04:42:14;17.50;29.60
27823;DHT22;29019;47.630;8.262;2023-02-27T04:46:16;17.50;29.60
27823;DHT22;29019;47.630;8.262;2023-02-27T04:50:21;17.50;29.60
27823;DHT22;29019;47.630;8.262;2023-02-27T04:54:30;17.50;29.60
27823;DHT22;29019;47.630;8.262;2023-02-27T04:58:36;17.50;29.60
27823;DHT22;29019;47.630;8.262;2023-02-27T05:02:45;17.50;29.60
27823;DHT22;29019;47.630;8.262;2023-02-27T05:06:46;17.50;29.50
27823;DHT22;29019;47.630;8.262;2023-02-27T05:10:50;17.50;29.50
27823;DHT22;29019;47.630;8.262;2023-02-27T05:15:02;17.50;29.50
27823;DHT22;29019;47.630;8.262;2023-02-27T05:19:05;17.60;29.50
27823;DHT22;29019;47.630;8.262;2023-02-27T05:23:17;17.80;29.40
27823;DHT22;29019;47.630;8.262;2023-02-27T05:27:34;17.90;29.40
27823;DHT22;29019;47.630;8.262;2023-02-27T05:31:41;18.00;29.40
27823;DHT22;29019;47.630;8.262;2023-02-27T05:35:54;18.10;29.40
27823;DHT22;29019;47.630;8.262;2023-02-27T05:39:55;18.20;29.40
27823;DHT22;29019;47.630;8.262;2023-02-27T05:44:05;18.20;29.30
27823;DHT22;29019;47.630;8.262;2023-02-27T05:48:08;18.30;29.40
27823;DHT22;29019;47.630;8.262;2023-02-27T05:52:11;18.40;29.30
27823;DHT22;29019;47.630;8.262;2023-02-27T05:56:12;18.40;29.30
27823;DHT22;29019;47.630;8.262;2023-02-27T06:04:34;18.60;29.30
27823;DHT22;29019;47.630;8.262;2023-02-27T06:08:34;18.60;29.30
27823;DHT22;29019;47.630;8.262;2023-02-27T06:12:35;18.70;29.20
27823;DHT22;29019;47.630;8.262;2023-02-27T06:16:35;18.70;29.20
27823;DHT22;29019;47.630;8.262;2023-02-27T06:20:38;18.70;29.20
27823;DHT22;29019;47.630;8.262;2023-02-27T06:24:38;18.70;29.20
27823;DHT22;29019;47.630;8.262;2023-02-27T06:28:39;18.80;29.20
27823;DHT22;29019;47.630;8.262;2023-02-27T06:32:40;18.80;29.10
27823;DHT22;29019;47.630;8.262;2023-02-27T06:36:40;18.80;29.10
27823;DHT22;29019;47.630;8.262;2023-02-27T06:40:41;18.80;29.20
27823;DHT22;29019;47.630;8.262;2023-02-27T06:44:41;18.90;29.20
27823;DHT22;29019;47.630;8.262;2023-02-27T06:48:42;18.90;29.20
27823;DHT22;29019;47.630;8.262;2023-02-27T06:52:42;18.90;29.20
27823;DHT22;29019;47.630;8.262;2023-02-27T06:56:43;18.90;29.20
27823;DHT22;29019;47.630;8.262;2023-02-27T07:00:43;18.90;29.20
27823;DHT22;29019;47.630;8.262;2023-02-27T07:04:43;19.00;29.20
27823;DHT22;29019;47.630;8.262;2023-02-27T07:08:44;19.00;29.20
27823;DHT22;29019;47.630;8.262;2023-02-27T07:12:45;19.00;29.10
27823;DHT22;29019;47.630;8.262;2023-02-27T07:16:45;19.00;29.10
27823;DHT22;29019;47.630;8.262;2023-02-27T07:20:50;19.00;29.00
27823;DHT22;29019;47.630;8.262;2023-02-27T07:24:50;19.10;29.00
27823;DHT22;29019;47.630;8.262;2023-02-27T07:28:51;19.10;29.10
27823;DHT22;29019;47.630;8.262;2023-02-27T07:32:51;19.20;29.10
27823;DHT22;29019;47.630;8.262;2023-02-27T07:36:52;19.10;29.10
27823;DHT22;29019;47.630;8.262;2023-02-27T07:40:52;19.20;29.10
27823;DHT22;29019;47.630;8.262;2023-02-27T07:44:53;19.20;29.00
27823;DHT22;29019;47.630;8.262;2023-02-27T07:48:53;19.30;29.00
27823;DHT22;29019;47.630;8.262;2023-02-27T07:52:54;19.30;29.00
27823;DHT22;29019;47.630;8.262;2023-02-27T07:56:54;19.30;29.00
27823;DHT22;29019;47.630;8.262;2023-02-27T08:00:55;19.30;28.90
27823;DHT22;29019;47.630;8.262;2023-02-27T08:04:55;19.30;29.20
27823;DHT22;29019;47.630;8.262;2023-02-27T08:08:55;19.30;28.80
27823;DHT22;29019;47.630;8.262;2023-02-27T08:12:56;19.30;28.80
27823;DHT22;29019;47.630;8.262;2023-02-27T08:16:57;19.30;28.80
27823;DHT22;29019;47.630;8.262;2023-02-27T08:20:59;19.30;28.70
27823;DHT22;29019;47.630;8.262;2023-02-27T08:24:59;19.20;28.80
27823;DHT22;29019;47.630;8.262;2023-02-27T08:29:00;19.20;28.70
27823;DHT22;29019;47.630;8.262;2023-02-27T08:33:01;19.20;28.80
27823;DHT22;29019;47.630;8.262;2023-02-27T08:37:02;19.10;28.80
27823;DHT22;29019;47.630;8.262;2023-02-27T08:41:03;19.10;28.80
27823;DHT22;29019;47.630;8.262;2023-02-27T08:45:03;19.10;28.80
27823;DHT22;29019;47.630;8.262;2023-02-27T08:49:04;19.00;28.80
27823;DHT22;29019;47.630;8.262;2023-02-27T08:53:04;19.00;28.90
27823;DHT22;29019;47.630;8.262;2023-02-27T08:57:05;18.90;28.80
27823;DHT22;29019;47.630;8.262;2023-02-27T09:01:05;18.90;28.90
27823;DHT22;29019;47.630;8.262;2023-02-27T09:05:06;18.90;28.90
27823;DHT22;29019;47.630;8.262;2023-02-27T09:09:06;18.80;28.90
27823;DHT22;29019;47.630;8.262;2023-02-27T09:13:07;18.80;28.80
27823;DHT22;29019;47.630;8.262;2023-02-27T09:17:07;18.80;28.80
27823;DHT22;29019;47.630;8.262;2023-02-27T09:21:07;18.70;28.80
27823;DHT22;29019;47.630;8.262;2023-02-27T09:25:08;18.70;28.80
27823;DHT22;29019;47.630;8.262;2023-02-27T09:29:08;18.70;28.90
27823;DHT22;29019;47.630;8.262;2023-02-27T09:33:09;18.60;29.00
27823;DHT22;29019;47.630;8.262;2023-02-27T09:37:09;18.60;29.00
27823;DHT22;29019;47.630;8.262;2023-02-27T09:41:29;18.50;29.00
27823;DHT22;29019;47.630;8.262;2023-02-27T09:45:32;18.50;29.00
27823;DHT22;29019;47.630;8.262;2023-02-27T09:49:46;18.50;29.00
27823;DHT22;29019;47.630;8.262;2023-02-27T09:53:50;18.40;29.00
27823;DHT22;29019;47.630;8.262;2023-02-27T09:57:57;18.40;29.00
27823;DHT22;29019;47.630;8.262;2023-02-27T10:06:27;18.40;29.00
27823;DHT22;29019;47.630;8.262;2023-02-27T10:10:38;18.30;29.10
27823;DHT22;29019;47.630;8.262;2023-02-27T10:14:42;18.30;29.10
27823;DHT22;29019;47.630;8.262;2023-02-27T10:22:43;18.30;29.20
27823;DHT22;29019;47.630;8.262;2023-02-27T10:26:45;18.20;29.10
27823;DHT22;29019;47.630;8.262;2023-02-27T10:30:46;18.20;29.20
27823;DHT22;29019;47.630;8.262;2023-02-27T10:34:53;18.20;29.20
27823;DHT22;29019;47.630;8.262;2023-02-27T10:38:55;18.10;29.30
27823;DHT22;29019;47.630;8.262;2023-02-27T10:42:59;18.20;29.20
27823;DHT22;29019;47.630;8.262;2023-02-27T10:47:00;18.10;29.20
27823;DHT22;29019;47.630;8.262;2023-02-27T10:55:24;18.10;29.20
27823;DHT22;29019;47.630;8.262;2023-02-27T10:59:30;18.00;29.10
27823;DHT22;29019;47.630;8.262;2023-02-27T11:03:34;18.10;29.30
27823;DHT22;29019;47.630;8.262;2023-02-27T11:07:36;18.00;29.20
27823;DHT22;29019;47.630;8.262;2023-02-27T11:11:37;18.00;29.30
27823;DHT22;29019;47.630;8.262;2023-02-27T11:15:38;18.00;29.30
27823;DHT22;29019;47.630;8.262;2023-02-27T11:19:38;18.00;29.30
27823;DHT22;29019;47.630;8.262;2023-02-27T11:23:48;18.00;29.30
27823;DHT22;29019;47.630;8.262;2023-02-27T11:27:48;17.90;29.30
27823;DHT22;29019;47.630;8.262;2023-02-27T11:31:55;17.90;29.20
27823;DHT22;29019;47.630;8.262;2023-02-27T11:35:56;17.90;29.30
27823;DHT22;29019;47.630;8.262;2023-02-27T11:43:58;17.90;29.30
27823;DHT22;29019;47.630;8.262;2023-02-27T11:48:01;17.90;29.30
27823;DHT22;29019;47.630;8.262;2023-02-27T11:52:18;17.90;29.30
27823;DHT22;29019;47.630;8.262;2023-02-27T11:56:22;17.90;29.30
27823;DHT22;29019;47.630;8.262;2023-02-27T12:00:28;17.80;29.30
27823;DHT22;29019;47.630;8.262;2023-02-27T12:08:37;17.80;29.30
27823;DHT22;29019;47.630;8.262;2023-02-27T12:17:02;17.80;29.30
27823;DHT22;29019;47.630;8.262;2023-02-27T12:21:08;17.80;29.30
27823;DHT22;29019;47.630;8.262;2023-02-27T12:25:11;17.80;29.30
27823;DHT22;29019;47.630;8.262;2023-02-27T12:29:19;17.80;29.30
27823;DHT22;29019;47.630;8.262;2023-02-27T12:37:23;17.80;29.30
27823;DHT22;29019;47.630;8.262;2023-02-27T12:41:30;17.80;29.30
27823;DHT22;29019;47.630;8.262;2023-02-27T12:49:51;17.70;29.30
27823;DHT22;29019;47.630;8.262;2023-02-27T13:06:44;17.70;29.30
27823;DHT22;29019;47.630;8.262;2023-02-27T13:10:52;17.70;29.30
27823;DHT22;29019;47.630;8.262;2023-02-27T13:14:55;17.70;29.30
27823;DHT22;29019;47.630;8.262;2023-02-27T13:23:25;17.70;29.30
27823;DHT22;29019;47.630;8.262;2023-02-27T13:31:37;17.70;29.20
27823;DHT22;29019;47.630;8.262;2023-02-27T13:43:44;17.70;29.20
27823;DHT22;29019;47.630;8.262;2023-02-27T13:47:48;17.60;29.20
27823;DHT22;29019;47.630;8.262;2023-02-27T13:51:49;17.60;29.20
27823;DHT22;29019;47.630;8.262;2023-02-27T13:55:51;17.60;29.20
27823;DHT22;29019;47.630;8.262;2023-02-27T14:00:02;17.60;29.20
27823;DHT22;29019;47.630;8.262;2023-02-27T14:04:05;17.60;29.20
27823;DHT22;29019;47.630;8.262;2023-02-27T14:08:18;17.60;29.20
27823;DHT22;29019;47.630;8.262;2023-02-27T14:24:40;17.60;29.20
27823;DHT22;29019;47.630;8.262;2023-02-27T14:32:43;17.60;29.20
27823;DHT22;29019;47.630;8.262;2023-02-27T14:36:45;17.60;29.20
27823;DHT22;29019;47.630;8.262;2023-02-27T14:45:18;17.50;29.20
27823;DHT22;29019;47.630;8.262;2023-02-27T14:53:23;17.50;29.20
27823;DHT22;29019;47.630;8.262;2023-02-27T14:57:24;17.50;29.20
27823;DHT22;29019;47.630;8.262;2023-02-27T15:01:31;17.50;29.20
27823;DHT22;29019;47.630;8.262;2023-02-27T15:05:32;17.50;29.20
27823;DHT22;29019;47.630;8.262;2023-02-27T15:09:39;17.50;29.20
27823;DHT22;29019;47.630;8.262;2023-02-27T15:13:42;17.50;29.20
27823;DHT22;29019;47.630;8.262;2023-02-27T15:17:44;17.50;29.20
27823;DHT22;29019;47.630;8.262;2023-02-27T15:21:46;17.40;29.20
27823;DHT22;29019;47.630;8.262;2023-02-27T15:25:48;17.40;29.20
27823;DHT22;29019;47.630;8.262;2023-02-27T15:29:54;17.40;29.20
27823;DHT22;29019;47.630;8.262;2023-02-27T15:33:55;17.40;29.30
27823;DHT22;29019;47.630;8.262;2023-02-27T15:37:56;17.40;29.20
27823;DHT22;29019;47.630;8.262;2023-02-27T15:42:01;17.40;29.30
27823;DHT22;29019;47.630;8.262;2023-02-27T15:46:02;17.30;29.20
27823;DHT22;29019;47.630;8.262;2023-02-27T15:50:09;17.40;29.30
27823;DHT22;29019;47.630;8.262;2023-02-27T15:54:09;17.40;29.20
27823;DHT22;29019;47.630;8.262;2023-02-27T15:58:21;17.40;29.30
27823;DHT22;29019;47.630;8.262;2023-02-27T16:02:27;17.40;29.30
27823;DHT22;29019;47.630;8.262;2023-02-27T16:10:29;17.30;29.30
27823;DHT22;29019;47.630;8.262;2023-02-27T16:14:35;17.40;29.20
27823;DHT22;29019;47.630;8.262;2023-02-27T16:18:37;17.50;29.20
27823;DHT22;29019;47.630;8.262;2023-02-27T16:22:59;17.60;29.20
27823;DHT22;29019;47.630;8.262;2023-02-27T16:27:00;17.80;29.10
27823;DHT22;29019;47.630;8.262;2023-02-27T16:31:01;17.90;29.00
27823;DHT22;29019;47.630;8.262;2023-02-27T16:35:05;18.00;29.00
27823;DHT22;29019;47.630;8.262;2023-02-27T16:39:12;18.00;28.90
27823;DHT22;29019;47.630;8.262;2023-02-27T16:43:12;18.10;28.90
27823;DHT22;29019;47.630;8.262;2023-02-27T16:47:13;18.20;28.90
27823;DHT22;29019;47.630;8.262;2023-02-27T16:51:14;18.30;28.90
27823;DHT22;29019;47.630;8.262;2023-02-27T16:55:15;18.40;28.90
27823;DHT22;29019;47.630;8.262;2023-02-27T16:59:35;18.40;28.90
27823;DHT22;29019;47.630;8.262;2023-02-27T17:03:36;18.50;28.90
27823;DHT22;29019;47.630;8.262;2023-02-27T17:07:36;18.50;28.80
27823;DHT22;29019;47.630;8.262;2023-02-27T17:11:37;18.60;28.80
27823;DHT22;29019;47.630;8.262;2023-02-27T17:15:37;18.60;28.80
27823;DHT22;29019;47.630;8.262;2023-02-27T17:19:38;18.60;28.80
27823;DHT22;29019;47.630;8.262;2023-02-27T17:23:38;18.70;28.70
27823;DHT22;29019;47.630;8.262;2023-02-27T17:27:40;18.70;28.70
27823;DHT22;29019;47.630;8.262;2023-02-27T17:31:40;18.70;29.10
27823;DHT22;29019;47.630;8.262;2023-02-27T17:35:41;18.80;28.70
27823;DHT22;29019;47.630;8.262;2023-02-27T17:39:41;18.80;28.70
27823;DHT22;29019;47.630;8.262;2023-02-27T17:43:42;18.80;28.70
27823;DHT22;29019;47.630;8.262;2023-02-27T17:47:42;18.90;28.70
27823;DHT22;29019;47.630;8.262;2023-02-27T17:51:43;18.90;28.70
27823;DHT22;29019;47.630;8.262;2023-02-27T17:55:43;18.90;28.70
27823;DHT22;29019;47.630;8.262;2023-02-27T17:59:44;19.00;28.70
27823;DHT22;29019;47.630;8.262;2023-02-27T18:03:44;19.00;28.60
27823;DHT22;29019;47.630;8.262;2023-02-27T18:07:45;19.00;28.60
27823;DHT22;29019;47.630;8.262;2023-02-27T18:11:45;19.00;28.50
27823;DHT22;29019;47.630;8.262;2023-02-27T18:15:46;19.00;28.50
27823;DHT22;29019;47.630;8.262;2023-02-27T18:19:46;19.10;28.50
27823;DHT22;29019;47.630;8.262;2023-02-27T18:23:48;19.10;28.50
27823;DHT22;29019;47.630;8.262;2023-02-27T18:27:49;19.10;28.50
27823;DHT22;29019;47.630;8.262;2023-02-27T18:31:49;19.10;28.50
27823;DHT22;29019;47.630;8.262;2023-02-27T18:35:52;19.10;28.50
27823;DHT22;29019;47.630;8.262;2023-02-27T18:39:53;19.10;28.50
27823;DHT22;29019;47.630;8.262;2023-02-27T18:43:53;19.10;28.50
27823;DHT22;29019;47.630;8.262;2023-02-27T18:47:54;19.10;28.60
27823;DHT22;29019;47.630;8.262;2023-02-27T18:51:55;19.20;28.60
27823;DHT22;29019;47.630;8.262;2023-02-27T18:55:59;19.10;28.50
27823;DHT22;29019;47.630;8.262;2023-02-27T18:59:59;19.10;28.50
27823;DHT22;29019;47.630;8.262;2023-02-27T19:04:00;19.10;28.90
27823;DHT22;29019;47.630;8.262;2023-02-27T19:08:05;19.20;28.50
27823;DHT22;29019;47.630;8.262;2023-02-27T19:12:05;19.20;28.50
27823;DHT22;29019;47.630;8.262;2023-02-27T19:16:06;19.20;28.60
27823;DHT22;29019;47.630;8.262;2023-02-27T19:20:06;19.20;28.50
27823;DHT22;29019;47.630;8.262;2023-02-27T19:24:08;19.30;28.60
27823;DHT22;29019;47.630;8.262;2023-02-27T19:28:09;19.30;28.60
27823;DHT22;29019;47.630;8.262;2023-02-27T19:32:10;19.30;28.50
27823;DHT22;29019;47.630;8.262;2023-02-27T19:36:11;19.30;28.50
27823;DHT22;29019;47.630;8.262;2023-02-27T19:40:13;19.30;28.50
27823;DHT22;29019;47.630;8.262;2023-02-27T19:44:14;19.30;28.40
27823;DHT22;29019;47.630;8.262;2023-02-27T19:48:15;19.40;28.40
27823;DHT22;29019;47.630;8.262;2023-02-27T19:52:18;19.40;28.40
27823;DHT22;29019;47.630;8.262;2023-02-27T19:56:20;19.40;28.40
27823;DHT22;29019;47.630;8.262;2023-02-27T20:00:21;19.40;28.40
27823;DHT22;29019;47.630;8.262;2023-02-27T20:04:22;19.40;28.40
27823;DHT22;29019;47.630;8.262;2023-02-27T20:08:22;19.40;28.40
27823;DHT22;29019;47.630;8.262;2023-02-27T20:12:23;19.50;28.50
27823;DHT22;29019;47.630;8.262;2023-02-27T20:16:23;19.50;28.50
27823;DHT22;29019;47.630;8.262;2023-02-27T20:20:26;19.50;28.40
27823;DHT22;29019;47.630;8.262;2023-02-27T20:24:27;19.50;28.40
27823;DHT22;29019;47.630;8.262;2023-02-27T20:28:28;19.50;28.30
27823;DHT22;29019;47.630;8.262;2023-02-27T20:32:28;19.40;28.20
27823;DHT22;29019;47.630;8.262;2023-02-27T20:36:29;19.40;28.30
27823;DHT22;29019;47.630;8.262;2023-02-27T20:40:29;19.40;28.30
27823;DHT22;29019;47.630;8.262;2023-02-27T20:44:30;19.40;28.30
27823;DHT22;29019;47.630;8.262;2023-02-27T20:48:30;19.30;28.30
27823;DHT22;29019;47.630;8.262;2023-02-27T20:52:30;19.30;28.30
27823;DHT22;29019;47.630;8.262;2023-02-27T20:56:32;19.30;28.50
27823;DHT22;29019;47.630;8.262;2023-02-27T21:00:33;19.40;28.50
27823;DHT22;29019;47.630;8.262;2023-02-27T21:04:33;19.40;28.40
27823;DHT22;29019;47.630;8.262;2023-02-27T21:08:46;19.50;28.50
27823;DHT22;29019;47.630;8.262;2023-02-27T21:12:46;19.50;28.50
27823;DHT22;29019;47.630;8.262;2023-02-27T21:16:47;19.50;28.40
27823;DHT22;29019;47.630;8.262;2023-02-27T21:20:47;19.50;28.40
27823;DHT22;29019;47.630;8.262;2023-02-27T21:24:48;19.50;28.30
27823;DHT22;29019;47.630;8.262;2023-02-27T21:28:51;19.50;28.30
27823;DHT22;29019;47.630;8.262;2023-02-27T21:32:52;19.50;28.30
27823;DHT22;29019;47.630;8.262;2023-02-27T21:36:53;19.50;28.20
27823;DHT22;29019;47.630;8.262;2023-02-27T21:40:53;19.50;28.20
27823;DHT22;29019;47.630;8.262;2023-02-27T21:44:54;19.40;28.20
27823;DHT22;29019;47.630;8.262;2023-02-27T21:48:54;19.40;28.30
27823;DHT22;29019;47.630;8.262;2023-02-27T21:52:55;19.30;28.20
27823;DHT22;29019;47.630;8.262;2023-02-27T21:56:55;19.30;28.30
27823;DHT22;29019;47.630;8.262;2023-02-27T22:00:58;19.30;28.40
27823;DHT22;29019;47.630;8.262;2023-02-27T22:04:58;19.30;28.30
27823;DHT22;29019;47.630;8.262;2023-02-27T22:09:00;19.30;28.30
27823;DHT22;29019;47.630;8.262;2023-02-27T22:13:01;19.30;28.30
27823;DHT22;29019;47.630;8.262;2023-02-27T22:17:01;19.20;28.30
27823;DHT22;29019;47.630;8.262;2023-02-27T22:21:02;19.20;28.30
27823;DHT22;29019;47.630;8.262;2023-02-27T22:25:06;19.20;28.70
27823;DHT22;29019;47.630;8.262;2023-02-27T22:29:06;19.10;28.30
27823;DHT22;29019;47.630;8.262;2023-02-27T22:33:07;19.10;28.80
27823;DHT22;29019;47.630;8.262;2023-02-27T22:37:07;19.10;28.40
27823;DHT22;29019;47.630;8.262;2023-02-27T22:41:09;19.00;28.40
27823;DHT22;29019;47.630;8.262;2023-02-27T22:45:10;19.00;28.40
27823;DHT22;29019;47.630;8.262;2023-02-27T22:49:18;19.00;28.40
27823;DHT22;29019;47.630;8.262;2023-02-27T22:53:19;18.90;28.50
27823;DHT22;29019;47.630;8.262;2023-02-27T22:57:19;18.90;28.60
27823;DHT22;29019;47.630;8.262;2023-02-27T23:01:21;18.80;28.60
27823;DHT22;29019;47.630;8.262;2023-02-27T23:05:21;18.80;28.70
27823;DHT22;29019;47.630;8.262;2023-02-27T23:09:23;18.70;28.60
27823;DHT22;29019;47.630;8.262;2023-02-27T23:13:24;18.70;28.70
27823;DHT22;29019;47.630;8.262;2023-02-27T23:17:25;18.70;28.70
27823;DHT22;29019;47.630;8.262;2023-02-27T23:21:27;18.60;28.70
27823;DHT22;29019;47.630;8.262;2023-02-27T23:25:34;18.60;28.70
27823;DHT22;29019;47.630;8.262;2023-02-27T23:29:34;18.60;28.80
27823;DHT22;29019;47.630;8.262;2023-02-27T23:33:35;18.50;28.80
27823;DHT22;29019;47.630;8.262;2023-02-27T23:37:35;18.50;28.80
27823;DHT22;29019;47.630;8.262;2023-02-27T23:41:36;18.40;28.80
27823;DHT22;29019;47.630;8.262;2023-02-27T23:45:37;18.40;28.80
27823;DHT22;29019;47.630;8.262;2023-02-27T23:49:37;18.40;28.90
27823;DHT22;29019;47.630;8.262;2023-02-27T23:53:38;18.40;28.90
27823;DHT22;29019;47.630;8.262;2023-02-27T23:57:39;18.40;28.90
